sensor_id;sensor_type;location;lat;lon;timestamp;pressure;altitude;pressure_sealevel;temperature;humidity
76156;BME280;64906;51.290;7.348;2023-11-21T00:00:13;98061.03;;;20.75;45.79
76156;BME280;64906;51.290;7.348;2023-11-21T00:02:39;98069.25;;;20.75;45.82
76156;BME280;64906;51.290;7.348;2023-11-21T00:05:09;98071.81;;;20.71;46.06
76156;BME280;64906;51.290;7.348;2023-11-21T00:07:38;98074.56;;;20.71;45.96
76156;BME280;64906;51.290;7.348;2023-11-21T00:10:04;98072.94;;;20.70;46.09
76156;BME280;64906;51.290;7.348;2023-11-21T00:12:30;98079.53;;;20.69;46.28
76156;BME280;64906;51.290;7.348;2023-11-21T00:14:56;98085.84;;;20.70;46.25
76156;BME280;64906;51.290;7.348;2023-11-21T00:17:21;98091.34;;;20.70;45.94
76156;BME280;64906;51.290;7.348;2023-11-21T00:19:47;98099.56;;;20.70;46.07
76156;BME280;64906;51.290;7.348;2023-11-21T00:22:12;98089.41;;;20.70;46.06
76156;BME280;64906;51.290;7.348;2023-11-21T00:24:37;98090.31;;;20.66;45.77
76156;BME280;64906;51.290;7.348;2023-11-21T00:27:03;98089.00;;;20.63;46.30
76156;BME280;64906;51.290;7.348;2023-11-21T00:29:28;98084.34;;;20.64;46.13
76156;BME280;64906;51.290;7.348;2023-11-21T00:31:54;98085.13;;;20.64;46.00
76156;BME280;64906;51.290;7.348;2023-11-21T00:34:19;98091.97;;;20.67;46.23
76156;BME280;64906;51.290;7.348;2023-11-21T00:36:45;98092.25;;;20.65;46.33
76156;BME280;64906;51.290;7.348;2023-11-21T00:39:10;98087.41;;;20.62;46.09
76156;BME280;64906;51.290;7.348;2023-11-21T00:41:37;98091.75;;;20.63;45.87
76156;BME280;64906;51.290;7.348;2023-11-21T00:44:02;98087.41;;;20.62;46.03
76156;BME280;64906;51.290;7.348;2023-11-21T00:46:28;98096.13;;;20.64;46.10
76156;BME280;64906;51.290;7.348;2023-11-21T00:48:55;98103.03;;;20.62;45.72
76156;BME280;64906;51.290;7.348;2023-11-21T00:51:21;98099.16;;;20.63;45.87
76156;BME280;64906;51.290;7.348;2023-11-21T00:53:47;98091.56;;;20.60;46.05
76156;BME280;64906;51.290;7.348;2023-11-21T00:56:12;98095.63;;;20.62;45.90
76156;BME280;64906;51.290;7.348;2023-11-21T00:58:38;98103.34;;;20.60;45.85
76156;BME280;64906;51.290;7.348;2023-11-21T01:01:04;98096.06;;;20.56;46.15
76156;BME280;64906;51.290;7.348;2023-11-21T01:03:29;98103.16;;;20.57;46.13
76156;BME280;64906;51.290;7.348;2023-11-21T01:05:54;98103.47;;;20.55;46.34
76156;BME280;64906;51.290;7.348;2023-11-21T01:08:19;98109.78;;;20.56;46.01
76156;BME280;64906;51.290;7.348;2023-11-21T01:10:45;98110.56;;;20.56;46.17
76156;BME280;64906;51.290;7.348;2023-11-21T01:13:10;98106.53;;;20.54;46.03
76156;BME280;64906;51.290;7.348;2023-11-21T01:15:36;98100.53;;;20.52;46.32
76156;BME280;64906;51.290;7.348;2023-11-21T01:18:01;98108.44;;;20.53;46.21
76156;BME280;64906;51.290;7.348;2023-11-21T01:20:26;98111.69;;;20.55;46.39
76156;BME280;64906;51.290;7.348;2023-11-21T01:22:52;98112.00;;;20.54;46.06
76156;BME280;64906;51.290;7.348;2023-11-21T01:25:19;98103.28;;;20.52;46.21
76156;BME280;64906;51.290;7.348;2023-11-21T01:27:44;98110.88;;;20.55;46.29
76156;BME280;64906;51.290;7.348;2023-11-21T01:30:10;98107.94;;;20.51;46.13
76156;BME280;64906;51.290;7.348;2023-11-21T01:32:39;98110.38;;;20.53;46.38
76156;BME280;64906;51.290;7.348;2023-11-21T01:35:05;98107.94;;;20.51;46.39
76156;BME280;64906;51.290;7.348;2023-11-21T01:37:32;98106.00;;;20.52;45.98
76156;BME280;64906;51.290;7.348;2023-11-21T01:39:58;98107.44;;;20.49;46.17
76156;BME280;64906;51.290;7.348;2023-11-21T01:42:24;98110.56;;;20.56;46.37
76156;BME280;64906;51.290;7.348;2023-11-21T01:44:49;98116.88;;;20.57;45.97
76156;BME280;64906;51.290;7.348;2023-11-21T01:47:15;98123.47;;;20.56;46.12
76156;BME280;64906;51.290;7.348;2023-11-21T01:49:43;98120.44;;;20.57;45.75
76156;BME280;64906;51.290;7.348;2023-11-21T01:52:09;98122.88;;;20.59;46.28
76156;BME280;64906;51.290;7.348;2023-11-21T01:54:36;98120.22;;;20.54;45.85
76156;BME280;64906;51.290;7.348;2023-11-21T01:57:03;98127.53;;;20.58;45.97
76156;BME280;64906;51.290;7.348;2023-11-21T01:59:38;98124.28;;;20.56;46.03
76156;BME280;64906;51.290;7.348;2023-11-21T02:02:06;98124.59;;;20.55;46.26
76156;BME280;64906;51.290;7.348;2023-11-21T02:04:33;98122.16;;;20.53;46.34
76156;BME280;64906;51.290;7.348;2023-11-21T02:06:59;98124.91;;;20.53;46.05
76156;BME280;64906;51.290;7.348;2023-11-21T02:09:26;98129.56;;;20.53;45.99
76156;BME280;64906;51.290;7.348;2023-11-21T02:11:53;98133.75;;;20.50;46.17
76156;BME280;64906;51.290;7.348;2023-11-21T02:14:19;98131.31;;;20.49;46.04
76156;BME280;64906;51.290;7.348;2023-11-21T02:16:50;98138.22;;;20.46;46.01
76156;BME280;64906;51.290;7.348;2023-11-21T02:19:19;98138.50;;;20.45;46.19
76156;BME280;64906;51.290;7.348;2023-11-21T02:21:52;98146.84;;;20.40;46.54
76156;BME280;64906;51.290;7.348;2023-11-21T02:24:21;98150.63;;;20.44;46.28
76156;BME280;64906;51.290;7.348;2023-11-21T02:26:50;98161.28;;;20.45;46.50
76156;BME280;64906;51.290;7.348;2023-11-21T02:29:17;98159.94;;;20.43;46.16
76156;BME280;64906;51.290;7.348;2023-11-21T02:31:44;98171.41;;;20.45;46.40
76156;BME280;64906;51.290;7.348;2023-11-21T02:34:17;98163.50;;;20.43;46.49
76156;BME280;64906;51.290;7.348;2023-11-21T02:36:43;98158.84;;;20.44;46.26
76156;BME280;64906;51.290;7.348;2023-11-21T02:39:10;98165.41;;;20.43;46.10
76156;BME280;64906;51.290;7.348;2023-11-21T02:41:38;98157.81;;;20.40;46.39
76156;BME280;64906;51.290;7.348;2023-11-21T02:44:05;98165.34;;;20.34;46.69
76156;BME280;64906;51.290;7.348;2023-11-21T02:46:31;98170.84;;;20.34;46.33
76156;BME280;64906;51.290;7.348;2023-11-21T02:48:59;98165.97;;;20.31;46.36
76156;BME280;64906;51.290;7.348;2023-11-21T02:51:24;98164.03;;;20.32;46.43
76156;BME280;64906;51.290;7.348;2023-11-21T02:53:49;98159.06;;;20.34;46.44
76156;BME280;64906;51.290;7.348;2023-11-21T02:56:16;98154.69;;;20.33;46.58
76156;BME280;64906;51.290;7.348;2023-11-21T02:58:43;98168.41;;;20.33;46.66
76156;BME280;64906;51.290;7.348;2023-11-21T03:01:09;98166.75;;;20.32;46.67
76156;BME280;64906;51.290;7.348;2023-11-21T03:03:36;98171.16;;;20.33;46.55
76156;BME280;64906;51.290;7.348;2023-11-21T03:06:05;98176.13;;;20.31;46.36
76156;BME280;64906;51.290;7.348;2023-11-21T03:08:31;98176.41;;;20.29;46.31
76156;BME280;64906;51.290;7.348;2023-11-21T03:10:57;98172.03;;;20.28;46.56
76156;BME280;64906;51.290;7.348;2023-11-21T03:13:22;98179.69;;;20.31;46.36
76156;BME280;64906;51.290;7.348;2023-11-21T03:15:48;98185.94;;;20.32;46.75
76156;BME280;64906;51.290;7.348;2023-11-21T03:18:13;98181.59;;;20.31;46.44
76156;BME280;64906;51.290;7.348;2023-11-21T03:20:38;98184.66;;;20.29;46.42
76156;BME280;64906;51.290;7.348;2023-11-21T03:23:04;98185.44;;;20.30;46.40
76156;BME280;64906;51.290;7.348;2023-11-21T03:25:30;98185.44;;;20.30;46.56
76156;BME280;64906;51.290;7.348;2023-11-21T03:27:56;98189.09;;;20.25;46.61
76156;BME280;64906;51.290;7.348;2023-11-21T03:30:21;98194.28;;;20.27;46.73
76156;BME280;64906;51.290;7.348;2023-11-21T03:32:47;98196.22;;;20.26;46.86
76156;BME280;64906;51.290;7.348;2023-11-21T03:35:12;98194.59;;;20.25;46.52
76156;BME280;64906;51.290;7.348;2023-11-21T03:37:37;98197.94;;;20.22;46.81
76156;BME280;64906;51.290;7.348;2023-11-21T03:40:06;98202.50;;;20.27;46.64
76156;BME280;64906;51.290;7.348;2023-11-21T03:42:33;98199.56;;;20.23;46.78
76156;BME280;64906;51.290;7.348;2023-11-21T03:44:58;98198.75;;;20.23;46.32
76156;BME280;64906;51.290;7.348;2023-11-21T03:47:24;98197.94;;;20.22;46.40
76156;BME280;64906;51.290;7.348;2023-11-21T03:49:49;98202.28;;;20.23;46.80
76156;BME280;64906;51.290;7.348;2023-11-21T03:52:14;98208.38;;;20.20;46.82
76156;BME280;64906;51.290;7.348;2023-11-21T03:54:40;98205.94;;;20.19;46.66
76156;BME280;64906;51.290;7.348;2023-11-21T03:57:05;98215.50;;;20.21;46.51
76156;BME280;64906;51.290;7.348;2023-11-21T03:59:30;98220.47;;;20.19;46.87
76156;BME280;64906;51.290;7.348;2023-11-21T04:01:56;98224.81;;;20.20;46.51
76156;BME280;64906;51.290;7.348;2023-11-21T04:04:22;98230.31;;;20.20;46.44
76156;BME280;64906;51.290;7.348;2023-11-21T04:06:47;98232.25;;;20.20;46.73
76156;BME280;64906;51.290;7.348;2023-11-21T04:09:13;98240.28;;;20.16;46.73
76156;BME280;64906;51.290;7.348;2023-11-21T04:11:38;98250.63;;;20.19;46.62
76156;BME280;64906;51.290;7.348;2023-11-21T04:14:03;98248.69;;;20.20;46.59
76156;BME280;64906;51.290;7.348;2023-11-21T04:16:29;98252.25;;;20.20;46.75
76156;BME280;64906;51.290;7.348;2023-11-21T04:18:55;98244.31;;;20.19;46.46
76156;BME280;64906;51.290;7.348;2023-11-21T04:21:22;98251.72;;;20.18;46.41
76156;BME280;64906;51.290;7.348;2023-11-21T04:23:48;98247.88;;;20.19;46.93
76156;BME280;64906;51.290;7.348;2023-11-21T04:26:14;98252.25;;;20.20;46.94
76156;BME280;64906;51.290;7.348;2023-11-21T04:28:39;98252.25;;;20.20;46.63
76156;BME280;64906;51.290;7.348;2023-11-21T04:31:04;98251.72;;;20.18;46.95
76156;BME280;64906;51.290;7.348;2023-11-21T04:33:30;98245.75;;;20.16;46.51
76156;BME280;64906;51.290;7.348;2023-11-21T04:35:56;98246.25;;;20.18;46.93
76156;BME280;64906;51.290;7.348;2023-11-21T04:38:21;98253.16;;;20.16;46.62
76156;BME280;64906;51.290;7.348;2023-11-21T04:40:47;98258.63;;;20.16;46.86
76156;BME280;64906;51.290;7.348;2023-11-21T04:43:12;98249.59;;;20.15;46.76
76156;BME280;64906;51.290;7.348;2023-11-21T04:45:38;98252.84;;;20.17;46.60
76156;BME280;64906;51.290;7.348;2023-11-21T04:48:06;98254.28;;;20.15;46.54
76156;BME280;64906;51.290;7.348;2023-11-21T04:50:31;98257.81;;;20.15;46.71
76156;BME280;64906;51.290;7.348;2023-11-21T04:52:57;98253.44;;;20.14;46.59
76156;BME280;64906;51.290;7.348;2023-11-21T04:55:22;98258.09;;;20.14;46.61
76156;BME280;64906;51.290;7.348;2023-11-21T04:57:47;98261.13;;;20.12;47.06
76156;BME280;64906;51.290;7.348;2023-11-21T05:00:13;98262.78;;;20.13;46.79
76156;BME280;64906;51.290;7.348;2023-11-21T05:02:40;98269.34;;;20.12;46.81
76156;BME280;64906;51.290;7.348;2023-11-21T05:05:07;98263.88;;;20.12;46.79
76156;BME280;64906;51.290;7.348;2023-11-21T05:07:33;98271.28;;;20.12;46.89
76156;BME280;64906;51.290;7.348;2023-11-21T05:10:00;98268.03;;;20.10;46.98
76156;BME280;64906;51.290;7.348;2023-11-21T05:12:31;98272.41;;;20.11;46.91
76156;BME280;64906;51.290;7.348;2023-11-21T05:15:04;98281.75;;;20.10;47.06
76156;BME280;64906;51.290;7.348;2023-11-21T05:17:33;98275.44;;;20.09;46.75
76156;BME280;64906;51.290;7.348;2023-11-21T05:19:59;98271.41;;;20.07;46.68
76156;BME280;64906;51.290;7.348;2023-11-21T05:22:28;98277.75;;;20.02;46.86
76156;BME280;64906;51.290;7.348;2023-11-21T05:24:54;98285.47;;;20.00;46.91
76156;BME280;64906;51.290;7.348;2023-11-21T05:27:19;98275.31;;;20.00;47.16
76156;BME280;64906;51.290;7.348;2023-11-21T05:29:44;98285.09;;;20.07;46.96
76156;BME280;64906;51.290;7.348;2023-11-21T05:32:09;98289.97;;;20.10;47.00
76156;BME280;64906;51.290;7.348;2023-11-21T05:34:35;98290.75;;;20.10;47.06
76156;BME280;64906;51.290;7.348;2023-11-21T05:37:00;98296.25;;;20.10;46.86
76156;BME280;64906;51.290;7.348;2023-11-21T05:39:25;98291.06;;;20.08;46.94
76156;BME280;64906;51.290;7.348;2023-11-21T05:41:50;98300.72;;;20.06;47.19
76156;BME280;64906;51.290;7.348;2023-11-21T05:44:16;98303.38;;;20.11;47.01
76156;BME280;64906;51.290;7.348;2023-11-21T05:46:41;98312.69;;;20.10;47.02
76156;BME280;64906;51.290;7.348;2023-11-21T05:49:08;98315.41;;;20.10;47.25
76156;BME280;64906;51.290;7.348;2023-11-21T05:51:33;98321.72;;;20.11;47.26
76156;BME280;64906;51.290;7.348;2023-11-21T05:53:59;98315.94;;;20.12;47.15
76156;BME280;64906;51.290;7.348;2023-11-21T05:56:24;98318.16;;;20.10;47.13
76156;BME280;64906;51.290;7.348;2023-11-21T05:58:50;98319.50;;;20.13;47.17
76156;BME280;64906;51.290;7.348;2023-11-21T06:01:16;98325.28;;;20.11;47.10
76156;BME280;64906;51.290;7.348;2023-11-21T06:03:41;98337.28;;;20.15;47.21
76156;BME280;64906;51.290;7.348;2023-11-21T06:06:08;98338.09;;;20.16;47.56
76156;BME280;64906;51.290;7.348;2023-11-21T06:08:33;98339.50;;;20.13;47.13
76156;BME280;64906;51.290;7.348;2023-11-21T06:10:59;98350.69;;;20.17;47.44
76156;BME280;64906;51.290;7.348;2023-11-21T06:13:24;98358.59;;;20.18;47.08
76156;BME280;64906;51.290;7.348;2023-11-21T06:15:53;98356.38;;;20.20;47.15
76156;BME280;64906;51.290;7.348;2023-11-21T06:18:18;98361.06;;;20.20;47.19
76156;BME280;64906;51.290;7.348;2023-11-21T06:20:46;98366.56;;;20.20;47.22
76156;BME280;64906;51.290;7.348;2023-11-21T06:23:11;98359.13;;;20.20;47.45
76156;BME280;64906;51.290;7.348;2023-11-21T06:25:37;98358.91;;;20.17;47.05
76156;BME280;64906;51.290;7.348;2023-11-21T06:28:03;98360.78;;;20.21;47.30
76156;BME280;64906;51.290;7.348;2023-11-21T06:30:28;98367.03;;;20.22;47.82
76156;BME280;64906;51.290;7.348;2023-11-21T06:32:54;98365.44;;;20.21;47.51
76156;BME280;64906;51.290;7.348;2023-11-21T06:35:20;98373.88;;;20.24;47.57
76156;BME280;64906;51.290;7.348;2023-11-21T06:37:45;98371.66;;;20.26;47.75
76156;BME280;64906;51.290;7.348;2023-11-21T06:40:13;98369.69;;;20.27;47.41
76156;BME280;64906;51.290;7.348;2023-11-21T06:42:43;98377.91;;;20.27;47.61
76156;BME280;64906;51.290;7.348;2023-11-21T06:45:09;98378.75;;;20.27;47.37
76156;BME280;64906;51.290;7.348;2023-11-21T06:47:36;98387.47;;;20.29;47.64
76156;BME280;64906;51.290;7.348;2023-11-21T06:50:01;98386.66;;;20.29;47.55
76156;BME280;64906;51.290;7.348;2023-11-21T06:52:27;98390.22;;;20.29;47.81
76156;BME280;64906;51.290;7.348;2023-11-21T06:54:52;98395.72;;;20.29;47.60
76156;BME280;64906;51.290;7.348;2023-11-21T06:57:17;98396.00;;;20.28;47.41
76156;BME280;64906;51.290;7.348;2023-11-21T06:59:43;98398.16;;;20.31;47.50
76156;BME280;64906;51.290;7.348;2023-11-21T07:02:08;98412.16;;;20.29;47.79
76156;BME280;64906;51.290;7.348;2023-11-21T07:04:35;98408.81;;;20.32;47.82
76156;BME280;64906;51.290;7.348;2023-11-21T07:07:01;98412.06;;;20.34;47.83
76156;BME280;64906;51.290;7.348;2023-11-21T07:09:27;98418.66;;;20.33;47.78
76156;BME280;64906;51.290;7.348;2023-11-21T07:11:52;98421.38;;;20.33;47.64
76156;BME280;64906;51.290;7.348;2023-11-21T07:14:19;98421.69;;;20.32;47.75
76156;BME280;64906;51.290;7.348;2023-11-21T07:16:46;98436.13;;;20.37;47.38
76156;BME280;64906;51.290;7.348;2023-11-21T07:19:11;98437.22;;;20.36;47.88
76156;BME280;64906;51.290;7.348;2023-11-21T07:21:38;98445.19;;;20.38;47.56
76156;BME280;64906;51.290;7.348;2023-11-21T07:24:05;98451.47;;;20.38;47.93
76156;BME280;64906;51.290;7.348;2023-11-21T07:26:31;98448.41;;;20.40;47.92
76156;BME280;64906;51.290;7.348;2023-11-21T07:28:58;98453.41;;;20.38;47.89
76156;BME280;64906;51.290;7.348;2023-11-21T07:31:23;98464.06;;;20.39;47.83
76156;BME280;64906;51.290;7.348;2023-11-21T07:33:50;98458.38;;;20.36;48.00
76156;BME280;64906;51.290;7.348;2023-11-21T07:36:19;98458.38;;;20.36;48.25
76156;BME280;64906;51.290;7.348;2023-11-21T07:38:47;98451.75;;;20.37;47.84
76156;BME280;64906;51.290;7.348;2023-11-21T07:41:13;98456.94;;;20.38;47.89
76156;BME280;64906;51.290;7.348;2023-11-21T07:43:43;98458.59;;;20.39;48.35
76156;BME280;64906;51.290;7.348;2023-11-21T07:46:08;98455.56;;;20.41;48.36
76156;BME280;64906;51.290;7.348;2023-11-21T07:48:34;98470.56;;;20.43;47.88
76156;BME280;64906;51.290;7.348;2023-11-21T07:51:01;98465.91;;;20.44;48.32
76156;BME280;64906;51.290;7.348;2023-11-21T07:53:28;98463.47;;;20.42;48.02
76156;BME280;64906;51.290;7.348;2023-11-21T07:55:55;98462.66;;;20.42;48.40
76156;BME280;64906;51.290;7.348;2023-11-21T07:58:21;98465.59;;;20.45;48.00
76156;BME280;64906;51.290;7.348;2023-11-21T08:00:46;98464.47;;;20.46;48.48
76156;BME280;64906;51.290;7.348;2023-11-21T08:03:13;98464.19;;;20.48;48.05
76156;BME280;64906;51.290;7.348;2023-11-21T08:05:38;98464.19;;;20.48;48.10
76156;BME280;64906;51.290;7.348;2023-11-21T08:08:04;98459.81;;;20.47;48.36
76156;BME280;64906;51.290;7.348;2023-11-21T08:10:29;98481.97;;;20.50;48.12
76156;BME280;64906;51.290;7.348;2023-11-21T08:12:55;98478.94;;;20.52;48.10
76156;BME280;64906;51.290;7.348;2023-11-21T08:15:21;98485.53;;;20.51;48.41
76156;BME280;64906;51.290;7.348;2023-11-21T08:17:47;98481.69;;;20.52;48.13
76156;BME280;64906;51.290;7.348;2023-11-21T08:20:13;98488.47;;;20.54;48.09
76156;BME280;64906;51.290;7.348;2023-11-21T08:22:42;98488.78;;;20.53;48.29
76156;BME280;64906;51.290;7.348;2023-11-21T08:25:08;98496.69;;;20.54;48.27
76156;BME280;64906;51.290;7.348;2023-11-21T08:27:34;98503.22;;;20.58;48.35
76156;BME280;64906;51.290;7.348;2023-11-21T08:30:00;98509.00;;;20.57;48.29
76156;BME280;64906;51.290;7.348;2023-11-21T08:32:26;98514.50;;;20.57;48.42
76156;BME280;64906;51.290;7.348;2023-11-21T08:34:51;98522.66;;;20.62;48.50
76156;BME280;64906;51.290;7.348;2023-11-21T08:37:17;98522.13;;;20.60;48.15
76156;BME280;64906;51.290;7.348;2023-11-21T08:39:44;98532.50;;;20.63;48.00
76156;BME280;64906;51.290;7.348;2023-11-21T08:42:09;98528.13;;;20.62;48.27
76156;BME280;64906;51.290;7.348;2023-11-21T08:44:35;98533.31;;;20.63;48.13
76156;BME280;64906;51.290;7.348;2023-11-21T08:47:00;98531.41;;;20.64;48.54
76156;BME280;64906;51.290;7.348;2023-11-21T08:49:25;98544.50;;;20.67;48.18
76156;BME280;64906;51.290;7.348;2023-11-21T08:51:53;98550.00;;;20.67;48.43
76156;BME280;64906;51.290;7.348;2023-11-21T08:54:20;98555.19;;;20.68;48.31
76156;BME280;64906;51.290;7.348;2023-11-21T08:56:46;98561.50;;;20.69;48.69
76156;BME280;64906;51.290;7.348;2023-11-21T08:59:11;98562.28;;;20.69;48.60
76156;BME280;64906;51.290;7.348;2023-11-21T09:01:40;98562.06;;;20.66;48.41
76156;BME280;64906;51.290;7.348;2023-11-21T09:04:06;98565.53;;;20.71;48.51
76156;BME280;64906;51.290;7.348;2023-11-21T09:06:31;98564.41;;;20.72;48.31
76156;BME280;64906;51.290;7.348;2023-11-21T09:08:57;98570.72;;;20.73;48.22
76156;BME280;64906;51.290;7.348;2023-11-21T09:11:23;98567.69;;;20.74;48.51
76156;BME280;64906;51.290;7.348;2023-11-21T09:13:48;98561.91;;;20.76;48.59
76156;BME280;64906;51.290;7.348;2023-11-21T09:16:14;98573.69;;;20.76;48.44
76156;BME280;64906;51.290;7.348;2023-11-21T09:18:40;98569.03;;;20.77;48.48
76156;BME280;64906;51.290;7.348;2023-11-21T09:21:06;98569.53;;;20.79;48.05
76156;BME280;64906;51.290;7.348;2023-11-21T09:23:31;98570.34;;;20.79;48.48
76156;BME280;64906;51.290;7.348;2023-11-21T09:25:56;98576.13;;;20.78;48.67
76156;BME280;64906;51.290;7.348;2023-11-21T09:28:25;98581.31;;;20.79;48.12
76156;BME280;64906;51.290;7.348;2023-11-21T09:30:52;98594.44;;;20.82;48.34
76156;BME280;64906;51.290;7.348;2023-11-21T09:33:18;98595.56;;;20.81;47.99
76156;BME280;64906;51.290;7.348;2023-11-21T09:35:44;98600.75;;;20.83;48.31
76156;BME280;64906;51.290;7.348;2023-11-21T09:38:09;98598.00;;;20.83;48.24
76156;BME280;64906;51.290;7.348;2023-11-21T09:40:36;98598.59;;;20.80;48.24
76156;BME280;64906;51.290;7.348;2023-11-21T09:43:22;98610.09;;;20.82;47.88
76156;BME280;64906;51.290;7.348;2023-11-21T09:45:54;98614.75;;;20.81;48.14
76156;BME280;64906;51.290;7.348;2023-11-21T09:48:23;98612.25;;;20.85;48.23
76156;BME280;64906;51.290;7.348;2023-11-21T09:50:50;98617.44;;;20.86;48.21
76156;BME280;64906;51.290;7.348;2023-11-21T09:53:19;98613.56;;;20.87;48.26
76156;BME280;64906;51.290;7.348;2023-11-21T09:55:48;98618.75;;;20.89;48.03
76156;BME280;64906;51.290;7.348;2023-11-21T09:58:14;98619.56;;;20.89;47.97
76156;BME280;64906;51.290;7.348;2023-11-21T10:00:41;98616.00;;;20.89;47.82
76156;BME280;64906;51.290;7.348;2023-11-21T10:03:07;98615.41;;;20.92;47.94
76156;BME280;64906;51.290;7.348;2023-11-21T10:05:34;98616.31;;;20.87;47.80
76156;BME280;64906;51.290;7.348;2023-11-21T10:07:59;98615.69;;;20.90;47.85
76156;BME280;64906;51.290;7.348;2023-11-21T10:10:25;98623.06;;;20.95;47.76
76156;BME280;64906;51.290;7.348;2023-11-21T10:12:55;98620.31;;;20.95;47.57
76156;BME280;64906;51.290;7.348;2023-11-21T10:15:22;98618.09;;;20.97;47.75
76156;BME280;64906;51.290;7.348;2023-11-21T10:17:49;98615.91;;;20.94;47.66
76156;BME280;64906;51.290;7.348;2023-11-21T10:20:15;98623.28;;;20.98;47.58
76156;BME280;64906;51.290;7.348;2023-11-21T10:22:42;98614.53;;;20.96;47.85
76156;BME280;64906;51.290;7.348;2023-11-21T10:25:11;98620.53;;;20.98;47.48
76156;BME280;64906;51.290;7.348;2023-11-21T10:27:40;98616.16;;;20.97;47.68
76156;BME280;64906;51.290;7.348;2023-11-21T10:30:07;98623.59;;;20.97;47.74
76156;BME280;64906;51.290;7.348;2023-11-21T10:32:37;98625.75;;;21.00;47.31
76156;BME280;64906;51.290;7.348;2023-11-21T10:35:02;98627.16;;;20.97;47.76
76156;BME280;64906;51.290;7.348;2023-11-21T10:37:34;98620.84;;;20.97;47.59
76156;BME280;64906;51.290;7.348;2023-11-21T10:40:00;98629.28;;;21.00;47.28
76156;BME280;64906;51.290;7.348;2023-11-21T10:42:25;98629.59;;;20.99;47.49
76156;BME280;64906;51.290;7.348;2023-11-21T10:44:55;98627.91;;;21.03;47.44
76156;BME280;64906;51.290;7.348;2023-11-21T10:47:21;98621.38;;;20.99;47.41
76156;BME280;64906;51.290;7.348;2023-11-21T10:49:51;98618.84;;;21.02;47.73
76156;BME280;64906;51.290;7.348;2023-11-21T10:52:19;98627.91;;;21.03;47.39
76156;BME280;64906;51.290;7.348;2023-11-21T10:54:46;98627.28;;;21.06;47.81
76156;BME280;64906;51.290;7.348;2023-11-21T10:57:16;98632.47;;;21.07;47.19
76156;BME280;64906;51.290;7.348;2023-11-21T10:59:47;98635.53;;;21.06;47.27
76156;BME280;64906;51.290;7.348;2023-11-21T11:02:24;98647.81;;;21.08;47.16
76156;BME280;64906;51.290;7.348;2023-11-21T11:04:54;98644.78;;;21.10;46.97
76156;BME280;64906;51.290;7.348;2023-11-21T11:07:26;98654.66;;;21.11;47.39
76156;BME280;64906;51.290;7.348;2023-11-21T11:09:54;98651.38;;;21.09;47.37
76156;BME280;64906;51.290;7.348;2023-11-21T11:12:21;98661.25;;;21.10;47.10
76156;BME280;64906;51.290;7.348;2023-11-21T11:14:48;98660.66;;;21.13;47.19
76156;BME280;64906;51.290;7.348;2023-11-21T11:17:13;98660.66;;;21.13;46.98
76156;BME280;64906;51.290;7.348;2023-11-21T11:19:39;98644.19;;;21.13;47.19
76156;BME280;64906;51.290;7.348;2023-11-21T11:22:31;98656.78;;;21.14;47.09
76156;BME280;64906;51.290;7.348;2023-11-21T11:27:39;98651.81;;;21.16;47.14
76156;BME280;64906;51.290;7.348;2023-11-21T11:35:46;98660.84;;;21.16;46.81
76156;BME280;64906;51.290;7.348;2023-11-21T11:38:16;98662.50;;;21.17;46.98
76156;BME280;64906;51.290;7.348;2023-11-21T11:40:46;98662.50;;;21.17;46.81
76156;BME280;64906;51.290;7.348;2023-11-21T11:43:12;98660.78;;;21.21;46.92
76156;BME280;64906;51.290;7.348;2023-11-21T11:45:38;98650.09;;;21.20;47.00
76156;BME280;64906;51.290;7.348;2023-11-21T11:48:08;98649.78;;;21.21;46.61
76156;BME280;64906;51.290;7.348;2023-11-21T11:50:42;98651.13;;;21.24;46.89
76156;BME280;64906;51.290;7.348;2023-11-21T11:53:25;98652.53;;;21.21;46.77
76156;BME280;64906;51.290;7.348;2023-11-21T11:56:14;98661.59;;;21.22;46.45
76156;BME280;64906;51.290;7.348;2023-11-21T11:58:43;98667.09;;;21.22;46.85
76156;BME280;64906;51.290;7.348;2023-11-21T12:01:11;98669.31;;;21.20;46.59
76156;BME280;64906;51.290;7.348;2023-11-21T12:03:37;98661.91;;;21.20;46.86
76156;BME280;64906;51.290;7.348;2023-11-21T12:06:02;98662.72;;;21.21;46.46
76156;BME280;64906;51.290;7.348;2023-11-21T12:08:28;98665.78;;;21.19;46.49
76156;BME280;64906;51.290;7.348;2023-11-21T12:10:56;98675.31;;;21.22;46.36
76156;BME280;64906;51.290;7.348;2023-11-21T12:13:22;98662.50;;;21.17;46.46
76156;BME280;64906;51.290;7.348;2023-11-21T12:15:48;98676.44;;;21.21;46.34
76156;BME280;64906;51.290;7.348;2023-11-21T12:18:14;98679.78;;;21.18;46.18
76156;BME280;64906;51.290;7.348;2023-11-21T12:20:39;98686.31;;;21.22;46.64
76156;BME280;64906;51.290;7.348;2023-11-21T12:23:06;98684.69;;;21.21;46.33
76156;BME280;64906;51.290;7.348;2023-11-21T12:25:34;98682.50;;;21.18;46.40
76156;BME280;64906;51.290;7.348;2023-11-21T12:28:01;98691.56;;;21.18;46.50
76156;BME280;64906;51.290;7.348;2023-11-21T12:30:30;98685.56;;;21.16;46.72
76156;BME280;64906;51.290;7.348;2023-11-21T12:32:58;98695.97;;;21.19;46.27
76156;BME280;64906;51.290;7.348;2023-11-21T12:35:28;98690.47;;;21.19;46.48
76156;BME280;64906;51.290;7.348;2023-11-21T12:37:55;98694.31;;;21.18;46.50
76156;BME280;64906;51.290;7.348;2023-11-21T12:40:22;98697.06;;;21.18;46.60
76156;BME280;64906;51.290;7.348;2023-11-21T12:42:50;98698.50;;;21.16;46.62
76156;BME280;64906;51.290;7.348;2023-11-21T12:47:46;98712.72;;;21.18;46.63
76156;BME280;64906;51.290;7.348;2023-11-21T12:50:12;98692.19;;;21.15;46.36
76156;BME280;64906;51.290;7.348;2023-11-21T12:52:44;98702.84;;;21.17;46.60
76156;BME280;64906;51.290;7.348;2023-11-21T12:55:16;98703.69;;;21.17;46.13
76156;BME280;64906;51.290;7.348;2023-11-21T12:57:43;98698.50;;;21.16;46.60
76156;BME280;64906;51.290;7.348;2023-11-21T13:00:10;98693.78;;;21.16;46.38
76156;BME280;64906;51.290;7.348;2023-11-21T13:02:41;98695.75;;;21.16;46.30
76156;BME280;64906;51.290;7.348;2023-11-21T13:05:08;98695.22;;;21.14;46.43
76156;BME280;64906;51.290;7.348;2023-11-21T13:07:44;98707.81;;;21.15;46.32